Main page
METAR-TAF:

METAR-TAF

Airports :

Seychelles International Airport

Victoria, Mahé, Seychelles

latitude: 04-40S, longitude: 055-31E, elevation: 3 m

Current weather observation

The report was made 46 minutes ago, at 03:00 UTC
Wind 9 kt from the North
Temperature 29°C
Humidity 74%
Pressure 1009 hPa
Visibility 10 km or more
Few clouds at a height of 2200 ft

METAR: FSIA 220300Z 01009KT 9999 FEW022 29/24 Q1009 NOSIG

Time: 07:46 (03:46 UTC)

Forecast

The report was made 4 hours and 47 minutes ago, at 22:59 UTC
Forecast valid from 22 at 00 UTC to 22 at 24 UTC
Wind 10 kt from the Northeast
Visibility 10 km or more
Scattered clouds at a height of 2000 ft

TAF: FSIA 212259Z 2200/2224 05010KT 9999 SCT020

Weather observations and forecasts of more than 4000 airports (METAR and TAF reports).

The available stations are represented by yellow and red dots on the map.

Hover mouse over dot to see the name of the station.

Then click to see weather observations and forecasts.

To change the map : click on the green buttons with a black cross to zoom in, on the green button with a dash to zoom out, or on the green arrows for adjacent maps.


METAR-TAF: